sensor_id;sensor_type;location;lat;lon;timestamp;pressure;altitude;pressure_sealevel;temperature
45393;BMP280;31129;44.810;10.334;2023-04-01T00:02:16;99648.66;;;12.91
45393;BMP280;31129;44.810;10.334;2023-04-01T00:04:41;99651.50;;;13.10
45393;BMP280;31129;44.810;10.334;2023-04-01T00:07:07;99644.88;;;13.00
45393;BMP280;31129;44.810;10.334;2023-04-01T00:09:32;99643.09;;;13.02
45393;BMP280;31129;44.810;10.334;2023-04-01T00:11:58;99655.53;;;13.03
45393;BMP280;31129;44.810;10.334;2023-04-01T00:14:23;99652.78;;;13.09
45393;BMP280;31129;44.810;10.334;2023-04-01T00:16:48;99653.78;;;13.06
45393;BMP280;31129;44.810;10.334;2023-04-01T00:19:13;99648.59;;;13.02
45393;BMP280;31129;44.810;10.334;2023-04-01T00:21:40;99655.91;;;12.89
45393;BMP280;31129;44.810;10.334;2023-04-01T00:24:05;99657.06;;;12.99
45393;BMP280;31129;44.810;10.334;2023-04-01T00:26:30;99649.50;;;13.16
45393;BMP280;31129;44.810;10.334;2023-04-01T00:28:56;99649.56;;;13.05
45393;BMP280;31129;44.810;10.334;2023-04-01T00:31:21;99647.53;;;13.11
45393;BMP280;31129;44.810;10.334;2023-04-01T00:33:46;99637.31;;;13.11
45393;BMP280;31129;44.810;10.334;2023-04-01T00:36:13;99642.16;;;13.00
45393;BMP280;31129;44.810;10.334;2023-04-01T00:38:39;99638.56;;;13.10
45393;BMP280;31129;44.810;10.334;2023-04-01T00:41:05;99642.03;;;13.16
45393;BMP280;31129;44.810;10.334;2023-04-01T00:43:31;99638.41;;;12.97
45393;BMP280;31129;44.810;10.334;2023-04-01T00:45:56;99640.91;;;13.01
45393;BMP280;31129;44.810;10.334;2023-04-01T00:48:23;99639.44;;;12.94
45393;BMP280;31129;44.810;10.334;2023-04-01T00:51:13;99637.41;;;13.00
45393;BMP280;31129;44.810;10.334;2023-04-01T00:53:38;99634.88;;;13.08
45393;BMP280;31129;44.810;10.334;2023-04-01T00:56:12;99634.34;;;13.09
45393;BMP280;31129;44.810;10.334;2023-04-01T00:58:59;99626.41;;;13.06
45393;BMP280;31129;44.810;10.334;2023-04-01T01:01:25;99617.63;;;13.13
45393;BMP280;31129;44.810;10.334;2023-04-01T01:03:50;99620.13;;;13.11
45393;BMP280;31129;44.810;10.334;2023-04-01T01:08:54;99617.88;;;13.15
45393;BMP280;31129;44.810;10.334;2023-04-01T01:11:23;99611.72;;;13.09
45393;BMP280;31129;44.810;10.334;2023-04-01T01:14:01;99600.44;;;13.18
45393;BMP280;31129;44.810;10.334;2023-04-01T01:16:30;99593.69;;;13.19
45393;BMP280;31129;44.810;10.334;2023-04-01T01:18:58;99588.22;;;13.19
45393;BMP280;31129;44.810;10.334;2023-04-01T01:31:27;99591.34;;;13.29
45393;BMP280;31129;44.810;10.334;2023-04-01T01:36:35;99595.25;;;13.39
45393;BMP280;31129;44.810;10.334;2023-04-01T01:39:07;99594.47;;;13.14
45393;BMP280;31129;44.810;10.334;2023-04-01T01:41:34;99591.25;;;12.80
45393;BMP280;31129;44.810;10.334;2023-04-01T01:44:00;99583.59;;;12.73
45393;BMP280;31129;44.810;10.334;2023-04-01T01:46:27;99591.50;;;12.76
45393;BMP280;31129;44.810;10.334;2023-04-01T01:48:52;99592.06;;;12.69
45393;BMP280;31129;44.810;10.334;2023-04-01T01:51:18;99591.56;;;12.65
45393;BMP280;31129;44.810;10.334;2023-04-01T01:53:45;99593.03;;;12.72
45393;BMP280;31129;44.810;10.334;2023-04-01T01:56:11;99591.34;;;12.63
45393;BMP280;31129;44.810;10.334;2023-04-01T01:58:45;99584.34;;;12.68
45393;BMP280;31129;44.810;10.334;2023-04-01T02:01:16;99576.63;;;12.72
45393;BMP280;31129;44.810;10.334;2023-04-01T02:03:43;99570.16;;;12.69
45393;BMP280;31129;44.810;10.334;2023-04-01T02:06:11;99586.09;;;12.65
45393;BMP280;31129;44.810;10.334;2023-04-01T02:08:42;99590.81;;;12.70
45393;BMP280;31129;44.810;10.334;2023-04-01T02:11:10;99590.84;;;12.65
45393;BMP280;31129;44.810;10.334;2023-04-01T02:13:40;99598.78;;;12.63
45393;BMP280;31129;44.810;10.334;2023-04-01T02:16:15;99606.63;;;12.48
45393;BMP280;31129;44.810;10.334;2023-04-01T02:18:45;99607.81;;;12.52
45393;BMP280;31129;44.810;10.334;2023-04-01T02:21:13;99607.69;;;12.28
45393;BMP280;31129;44.810;10.334;2023-04-01T02:23:39;99616.47;;;12.09
45393;BMP280;31129;44.810;10.334;2023-04-01T02:26:06;99622.69;;;12.04
45393;BMP280;31129;44.810;10.334;2023-04-01T02:28:32;99628.69;;;11.86
45393;BMP280;31129;44.810;10.334;2023-04-01T02:30:58;99629.44;;;11.76
45393;BMP280;31129;44.810;10.334;2023-04-01T02:33:25;99628.22;;;11.82
45393;BMP280;31129;44.810;10.334;2023-04-01T02:35:52;99626.19;;;11.94
45393;BMP280;31129;44.810;10.334;2023-04-01T02:38:17;99625.19;;;11.97
45393;BMP280;31129;44.810;10.334;2023-04-01T02:40:47;99633.16;;;11.89
45393;BMP280;31129;44.810;10.334;2023-04-01T02:43:13;99629.97;;;11.63
45393;BMP280;31129;44.810;10.334;2023-04-01T02:45:39;99631.19;;;11.56
45393;BMP280;31129;44.810;10.334;2023-04-01T02:48:04;99633.19;;;11.56
45393;BMP280;31129;44.810;10.334;2023-04-01T02:50:29;99634.91;;;11.42
45393;BMP280;31129;44.810;10.334;2023-04-01T02:52:55;99637.66;;;11.42
45393;BMP280;31129;44.810;10.334;2023-04-01T02:55:21;99636.66;;;11.56
45393;BMP280;31129;44.810;10.334;2023-04-01T02:57:46;99636.16;;;11.47
45393;BMP280;31129;44.810;10.334;2023-04-01T03:00:12;99632.94;;;11.48
45393;BMP280;31129;44.810;10.334;2023-04-01T03:02:38;99635.91;;;11.56
45393;BMP280;31129;44.810;10.334;2023-04-01T03:05:03;99645.84;;;11.59
45393;BMP280;31129;44.810;10.334;2023-04-01T03:07:29;99643.38;;;11.61
45393;BMP280;31129;44.810;10.334;2023-04-01T03:09:54;99643.59;;;11.57
45393;BMP280;31129;44.810;10.334;2023-04-01T03:12:20;99648.06;;;11.55
45393;BMP280;31129;44.810;10.334;2023-04-01T03:14:49;99651.31;;;11.53
45393;BMP280;31129;44.810;10.334;2023-04-01T03:17:14;99652.78;;;11.77
45393;BMP280;31129;44.810;10.334;2023-04-01T03:19:40;99655.53;;;11.71
45393;BMP280;31129;44.810;10.334;2023-04-01T03:22:08;99652.06;;;11.48
45393;BMP280;31129;44.810;10.334;2023-04-01T03:24:35;99647.59;;;11.34
45393;BMP280;31129;44.810;10.334;2023-04-01T03:27:00;99637.66;;;11.36
45393;BMP280;31129;44.810;10.334;2023-04-01T03:29:25;99642.63;;;11.21
45393;BMP280;31129;44.810;10.334;2023-04-01T03:31:50;99655.03;;;11.33
45393;BMP280;31129;44.810;10.334;2023-04-01T03:34:16;99654.28;;;11.44
45393;BMP280;31129;44.810;10.334;2023-04-01T03:36:41;99657.25;;;11.41
45393;BMP280;31129;44.810;10.334;2023-04-01T03:39:07;99668.44;;;11.59
45393;BMP280;31129;44.810;10.334;2023-04-01T03:41:39;99671.66;;;11.58
45393;BMP280;31129;44.810;10.334;2023-04-01T03:44:04;99660.75;;;11.41
45393;BMP280;31129;44.810;10.334;2023-04-01T03:46:30;99659.50;;;11.42
45393;BMP280;31129;44.810;10.334;2023-04-01T03:48:55;99666.19;;;11.30
45393;BMP280;31129;44.810;10.334;2023-04-01T03:51:20;99655.03;;;11.39
45393;BMP280;31129;44.810;10.334;2023-04-01T03:53:46;99656.53;;;11.51
45393;BMP280;31129;44.810;10.334;2023-04-01T03:56:11;99662.50;;;11.38
45393;BMP280;31129;44.810;10.334;2023-04-01T03:58:37;99659.75;;;11.50
45393;BMP280;31129;44.810;10.334;2023-04-01T04:01:15;99672.44;;;11.47
45393;BMP280;31129;44.810;10.334;2023-04-01T04:03:41;99666.44;;;11.43
45393;BMP280;31129;44.810;10.334;2023-04-01T04:06:10;99654.03;;;11.48
45393;BMP280;31129;44.810;10.334;2023-04-01T04:08:35;99652.53;;;11.41
45393;BMP280;31129;44.810;10.334;2023-04-01T04:11:00;99667.44;;;11.34
45393;BMP280;31129;44.810;10.334;2023-04-01T04:13:26;99663.22;;;11.33
45393;BMP280;31129;44.810;10.334;2023-04-01T04:15:58;99669.44;;;11.51
45393;BMP280;31129;44.810;10.334;2023-04-01T04:18:27;99670.44;;;11.59
45393;BMP280;31129;44.810;10.334;2023-04-01T04:20:52;99653.56;;;11.49
45393;BMP280;31129;44.810;10.334;2023-04-01T04:23:18;99662.97;;;11.43
45393;BMP280;31129;44.810;10.334;2023-04-01T04:25:58;99668.44;;;11.48
45393;BMP280;31129;44.810;10.334;2023-04-01T04:28:26;99683.34;;;11.53
45393;BMP280;31129;44.810;10.334;2023-04-01T04:30:53;99677.13;;;11.35
45393;BMP280;31129;44.810;10.334;2023-04-01T04:33:18;99682.34;;;11.33
45393;BMP280;31129;44.810;10.334;2023-04-01T04:35:44;99685.59;;;11.37
45393;BMP280;31129;44.810;10.334;2023-04-01T04:38:10;99687.53;;;11.31
45393;BMP280;31129;44.810;10.334;2023-04-01T04:40:36;99686.56;;;11.23
45393;BMP280;31129;44.810;10.334;2023-04-01T04:43:01;99693.25;;;11.22
45393;BMP280;31129;44.810;10.334;2023-04-01T04:45:27;99688.28;;;11.21
45393;BMP280;31129;44.810;10.334;2023-04-01T04:47:55;99694.44;;;11.10
45393;BMP280;31129;44.810;10.334;2023-04-01T04:50:20;99695.94;;;11.11
45393;BMP280;31129;44.810;10.334;2023-04-01T04:52:45;99691.22;;;11.06
45393;BMP280;31129;44.810;10.334;2023-04-01T04:55:11;99696.72;;;11.23
45393;BMP280;31129;44.810;10.334;2023-04-01T04:57:38;99704.72;;;11.32
45393;BMP280;31129;44.810;10.334;2023-04-01T05:00:03;99695.47;;;11.18
45393;BMP280;31129;44.810;10.334;2023-04-01T05:03:07;99699.47;;;11.23
45393;BMP280;31129;44.810;10.334;2023-04-01T05:05:36;99694.47;;;11.16
45393;BMP280;31129;44.810;10.334;2023-04-01T05:08:03;99697.94;;;11.16
45393;BMP280;31129;44.810;10.334;2023-04-01T05:10:28;99694.94;;;11.14
45393;BMP280;31129;44.810;10.334;2023-04-01T05:12:54;99705.16;;;11.30
45393;BMP280;31129;44.810;10.334;2023-04-01T05:15:21;99713.56;;;11.16
45393;BMP280;31129;44.810;10.334;2023-04-01T05:17:47;99717.06;;;11.27
45393;BMP280;31129;44.810;10.334;2023-04-01T05:20:13;99718.78;;;11.14
45393;BMP280;31129;44.810;10.334;2023-04-01T05:22:38;99720.00;;;11.13
45393;BMP280;31129;44.810;10.334;2023-04-01T05:25:04;99709.88;;;11.19
45393;BMP280;31129;44.810;10.334;2023-04-01T05:27:32;99732.22;;;11.28
45393;BMP280;31129;44.810;10.334;2023-04-01T05:29:59;99724.53;;;11.32
45393;BMP280;31129;44.810;10.334;2023-04-01T05:32:39;99719.81;;;11.33
45393;BMP280;31129;44.810;10.334;2023-04-01T05:35:05;99718.78;;;11.25
45393;BMP280;31129;44.810;10.334;2023-04-01T05:37:32;99724.78;;;11.23
45393;BMP280;31129;44.810;10.334;2023-04-01T05:39:58;99723.56;;;11.35
45393;BMP280;31129;44.810;10.334;2023-04-01T05:42:24;99716.34;;;11.32
45393;BMP280;31129;44.810;10.334;2023-04-01T05:44:49;99726.06;;;11.39
45393;BMP280;31129;44.810;10.334;2023-04-01T05:47:41;99729.53;;;11.45
45393;BMP280;31129;44.810;10.334;2023-04-01T05:50:08;99725.53;;;11.41
45393;BMP280;31129;44.810;10.334;2023-04-01T05:52:33;99722.06;;;11.40
45393;BMP280;31129;44.810;10.334;2023-04-01T05:54:58;99720.81;;;11.35
45393;BMP280;31129;44.810;10.334;2023-04-01T05:57:25;99720.31;;;11.43
45393;BMP280;31129;44.810;10.334;2023-04-01T05:59:50;99714.13;;;11.48
45393;BMP280;31129;44.810;10.334;2023-04-01T06:02:16;99719.84;;;11.55
45393;BMP280;31129;44.810;10.334;2023-04-01T06:04:42;99728.53;;;11.70
45393;BMP280;31129;44.810;10.334;2023-04-01T06:07:14;99739.00;;;11.83
45393;BMP280;31129;44.810;10.334;2023-04-01T06:09:39;99741.75;;;11.83
45393;BMP280;31129;44.810;10.334;2023-04-01T06:14:37;99731.53;;;11.72
45393;BMP280;31129;44.810;10.334;2023-04-01T06:17:18;99737.53;;;11.82
45393;BMP280;31129;44.810;10.334;2023-04-01T06:24:59;99736.50;;;12.02
45393;BMP280;31129;44.810;10.334;2023-04-01T06:35:43;99763.56;;;12.39
45393;BMP280;31129;44.810;10.334;2023-04-01T06:38:24;99760.53;;;12.54
45393;BMP280;31129;44.810;10.334;2023-04-01T06:43:52;99763.69;;;12.80
45393;BMP280;31129;44.810;10.334;2023-04-01T06:46:55;99766.03;;;12.42
45393;BMP280;31129;44.810;10.334;2023-04-01T06:53:06;99762.03;;;12.49
45393;BMP280;31129;44.810;10.334;2023-04-01T06:56:16;99774.19;;;12.70
45393;BMP280;31129;44.810;10.334;2023-04-01T06:59:11;99757.25;;;12.66
45393;BMP280;31129;44.810;10.334;2023-04-01T07:01:57;99746.09;;;12.59
45393;BMP280;31129;44.810;10.334;2023-04-01T07:04:30;99752.97;;;12.82
45393;BMP280;31129;44.810;10.334;2023-04-01T07:06:58;99755.19;;;12.83
45393;BMP280;31129;44.810;10.334;2023-04-01T07:09:25;99743.47;;;13.00
45393;BMP280;31129;44.810;10.334;2023-04-01T07:12:15;99739.94;;;12.99
45393;BMP280;31129;44.810;10.334;2023-04-01T07:15:49;99729.91;;;13.13
45393;BMP280;31129;44.810;10.334;2023-04-01T07:17:55;99745.09;;;13.14
45393;BMP280;31129;44.810;10.334;2023-04-01T07:20:31;99729.41;;;13.20
45393;BMP280;31129;44.810;10.334;2023-04-01T07:22:58;99731.81;;;13.35
45393;BMP280;31129;44.810;10.334;2023-04-01T07:25:43;99733.06;;;13.34
45393;BMP280;31129;44.810;10.334;2023-04-01T07:28:42;99728.03;;;13.38
45393;BMP280;31129;44.810;10.334;2023-04-01T07:36:32;99727.63;;;13.58
45393;BMP280;31129;44.810;10.334;2023-04-01T07:41:55;99733.97;;;13.77
45393;BMP280;31129;44.810;10.334;2023-04-01T07:44:29;99740.66;;;13.82
45393;BMP280;31129;44.810;10.334;2023-04-01T07:47:08;99740.72;;;14.01
45393;BMP280;31129;44.810;10.334;2023-04-01T07:52:13;99750.06;;;14.16
45393;BMP280;31129;44.810;10.334;2023-04-01T07:57:27;99742.78;;;14.19
45393;BMP280;31129;44.810;10.334;2023-04-01T08:05:32;99741.28;;;14.42
45393;BMP280;31129;44.810;10.334;2023-04-01T08:10:51;99737.56;;;14.64
45393;BMP280;31129;44.810;10.334;2023-04-01T08:21:45;99739.09;;;14.78
45393;BMP280;31129;44.810;10.334;2023-04-01T08:24:29;99745.72;;;14.88
45393;BMP280;31129;44.810;10.334;2023-04-01T08:26:59;99749.59;;;14.98
45393;BMP280;31129;44.810;10.334;2023-04-01T08:29:26;99750.91;;;15.11
45393;BMP280;31129;44.810;10.334;2023-04-01T08:34:42;99751.53;;;15.35
45393;BMP280;31129;44.810;10.334;2023-04-01T08:37:19;99741.88;;;15.48
45393;BMP280;31129;44.810;10.334;2023-04-01T08:40:04;99735.69;;;15.60
45393;BMP280;31129;44.810;10.334;2023-04-01T08:42:47;99745.00;;;15.84
45393;BMP280;31129;44.810;10.334;2023-04-01T09:01:30;99760.91;;;16.04
45393;BMP280;31129;44.810;10.334;2023-04-01T09:27:28;99745.47;;;16.40
45393;BMP280;31129;44.810;10.334;2023-04-01T09:30:10;99741.50;;;16.62
45393;BMP280;31129;44.810;10.334;2023-04-01T09:32:59;99744.25;;;16.62
45393;BMP280;31129;44.810;10.334;2023-04-01T09:35:36;99742.88;;;16.69
45393;BMP280;31129;44.810;10.334;2023-04-01T09:43:25;99752.88;;;16.92
45393;BMP280;31129;44.810;10.334;2023-04-01T09:48:31;99755.94;;;17.02
45393;BMP280;31129;44.810;10.334;2023-04-01T09:51:21;99755.19;;;17.22
45393;BMP280;31129;44.810;10.334;2023-04-01T09:56:32;99749.44;;;17.33
45393;BMP280;31129;44.810;10.334;2023-04-01T09:59:14;99746.34;;;17.37
45393;BMP280;31129;44.810;10.334;2023-04-01T10:27:36;99723.28;;;18.40
45393;BMP280;31129;44.810;10.334;2023-04-01T10:41:20;99714.19;;;18.91
45393;BMP280;31129;44.810;10.334;2023-04-01T10:49:29;99709.06;;;19.41
45393;BMP280;31129;44.810;10.334;2023-04-01T11:14:38;99714.06;;;20.05
45393;BMP280;31129;44.810;10.334;2023-04-01T11:17:15;99709.53;;;20.25
45393;BMP280;31129;44.810;10.334;2023-04-01T11:22:33;99701.28;;;20.49
45393;BMP280;31129;44.810;10.334;2023-04-01T11:27:46;99709.41;;;20.55
45393;BMP280;31129;44.810;10.334;2023-04-01T11:30:22;99700.56;;;20.49
45393;BMP280;31129;44.810;10.334;2023-04-01T11:40:57;99697.03;;;20.81
45393;BMP280;31129;44.810;10.334;2023-04-01T11:56:40;99682.59;;;20.82
45393;BMP280;31129;44.810;10.334;2023-04-01T12:01:54;99687.06;;;21.03
45393;BMP280;31129;44.810;10.334;2023-04-01T12:19:58;99670.59;;;21.22
45393;BMP280;31129;44.810;10.334;2023-04-01T12:22:38;99677.31;;;21.36
45393;BMP280;31129;44.810;10.334;2023-04-01T12:28:04;99681.97;;;21.33
45393;BMP280;31129;44.810;10.334;2023-04-01T12:30:45;99671.69;;;21.61
45393;BMP280;31129;44.810;10.334;2023-04-01T12:41:09;99669.81;;;21.63
45393;BMP280;31129;44.810;10.334;2023-04-01T12:48:40;99668.16;;;21.77
45393;BMP280;31129;44.810;10.334;2023-04-01T13:02:19;99651.31;;;22.19
45393;BMP280;31129;44.810;10.334;2023-04-01T13:17:40;99639.41;;;22.09
45393;BMP280;31129;44.810;10.334;2023-04-01T13:43:40;99619.25;;;22.45
45393;BMP280;31129;44.810;10.334;2023-04-01T13:48:54;99613.84;;;22.57
45393;BMP280;31129;44.810;10.334;2023-04-01T13:53:56;99604.66;;;22.28
45393;BMP280;31129;44.810;10.334;2023-04-01T13:59:03;99605.50;;;22.47
45393;BMP280;31129;44.810;10.334;2023-04-01T14:01:39;99610.81;;;22.72
45393;BMP280;31129;44.810;10.334;2023-04-01T14:04:13;99608.16;;;22.55
45393;BMP280;31129;44.810;10.334;2023-04-01T14:09:20;99598.13;;;23.27
45393;BMP280;31129;44.810;10.334;2023-04-01T14:12:06;99606.91;;;23.04
45393;BMP280;31129;44.810;10.334;2023-04-01T14:17:10;99601.34;;;23.14
45393;BMP280;31129;44.810;10.334;2023-04-01T14:19:51;99598.25;;;22.81
45393;BMP280;31129;44.810;10.334;2023-04-01T14:25:14;99588.81;;;22.57
45393;BMP280;31129;44.810;10.334;2023-04-01T14:45:26;99566.63;;;22.86
45393;BMP280;31129;44.810;10.334;2023-04-01T14:47:54;99582.16;;;22.98
45393;BMP280;31129;44.810;10.334;2023-04-01T14:50:22;99574.22;;;23.43
45393;BMP280;31129;44.810;10.334;2023-04-01T14:52:56;99582.16;;;23.08
45393;BMP280;31129;44.810;10.334;2023-04-01T15:00:39;99585.19;;;22.83
45393;BMP280;31129;44.810;10.334;2023-04-01T15:05:49;99586.09;;;22.76
45393;BMP280;31129;44.810;10.334;2023-04-01T15:21:23;99556.34;;;23.17
45393;BMP280;31129;44.810;10.334;2023-04-01T15:31:27;99559.75;;;23.16
45393;BMP280;31129;44.810;10.334;2023-04-01T15:39:13;99557.25;;;23.00
45393;BMP280;31129;44.810;10.334;2023-04-01T15:44:33;99569.00;;;23.08
45393;BMP280;31129;44.810;10.334;2023-04-01T15:47:00;99555.22;;;22.91
45393;BMP280;31129;44.810;10.334;2023-04-01T15:49:37;99573.06;;;22.88
45393;BMP280;31129;44.810;10.334;2023-04-01T15:52:16;99566.34;;;22.82
45393;BMP280;31129;44.810;10.334;2023-04-01T16:05:24;99564.88;;;23.19
45393;BMP280;31129;44.810;10.334;2023-04-01T16:08:11;99570.44;;;23.00
45393;BMP280;31129;44.810;10.334;2023-04-01T16:23:33;99573.63;;;22.67
45393;BMP280;31129;44.810;10.334;2023-04-01T16:26:08;99566.34;;;22.82
45393;BMP280;31129;44.810;10.334;2023-04-01T16:28:42;99566.91;;;22.99
45393;BMP280;31129;44.810;10.334;2023-04-01T16:31:15;99564.44;;;22.94
45393;BMP280;31129;44.810;10.334;2023-04-01T16:34:01;99564.72;;;23.17
45393;BMP280;31129;44.810;10.334;2023-04-01T16:36:47;99568.25;;;23.27
45393;BMP280;31129;44.810;10.334;2023-04-01T16:41:49;99560.88;;;22.55
45393;BMP280;31129;44.810;10.334;2023-04-01T16:44:21;99561.84;;;22.40
45393;BMP280;31129;44.810;10.334;2023-04-01T16:47:04;99573.63;;;22.67
45393;BMP280;31129;44.810;10.334;2023-04-01T16:49:37;99572.59;;;22.73
45393;BMP280;31129;44.810;10.334;2023-04-01T16:54:39;99572.91;;;23.25
45393;BMP280;31129;44.810;10.334;2023-04-01T17:00:15;99568.38;;;22.81
45393;BMP280;31129;44.810;10.334;2023-04-01T17:08:28;99567.81;;;23.02
45393;BMP280;31129;44.810;10.334;2023-04-01T17:11:00;99566.47;;;22.74
45393;BMP280;31129;44.810;10.334;2023-04-01T17:20:56;99569.03;;;21.80
45393;BMP280;31129;44.810;10.334;2023-04-01T17:23:27;99573.50;;;21.39
45393;BMP280;31129;44.810;10.334;2023-04-01T17:28:24;99572.91;;;21.06
45393;BMP280;31129;44.810;10.334;2023-04-01T17:31:02;99574.84;;;20.79
45393;BMP280;31129;44.810;10.334;2023-04-01T17:39:02;99566.16;;;20.33
45393;BMP280;31129;44.810;10.334;2023-04-01T17:49:23;99571.69;;;19.76
45393;BMP280;31129;44.810;10.334;2023-04-01T17:52:03;99561.97;;;19.52
45393;BMP280;31129;44.810;10.334;2023-04-01T17:54:38;99566.38;;;19.62
45393;BMP280;31129;44.810;10.334;2023-04-01T17:59:44;99574.94;;;19.34
45393;BMP280;31129;44.810;10.334;2023-04-01T18:02:28;99578.25;;;19.40
45393;BMP280;31129;44.810;10.334;2023-04-01T18:05:08;99580.09;;;19.38
45393;BMP280;31129;44.810;10.334;2023-04-01T18:07:44;99575.50;;;19.25
45393;BMP280;31129;44.810;10.334;2023-04-01T18:23:00;99579.81;;;19.03
45393;BMP280;31129;44.810;10.334;2023-04-01T18:25:40;99582.19;;;19.07
45393;BMP280;31129;44.810;10.334;2023-04-01T18:30:57;99577.78;;;18.96
45393;BMP280;31129;44.810;10.334;2023-04-01T18:33:29;99582.97;;;18.84
45393;BMP280;31129;44.810;10.334;2023-04-01T18:38:35;99586.44;;;18.77
45393;BMP280;31129;44.810;10.334;2023-04-01T18:46:20;99582.22;;;18.69
45393;BMP280;31129;44.810;10.334;2023-04-01T18:48:59;99587.53;;;18.74
45393;BMP280;31129;44.810;10.334;2023-04-01T18:56:47;99592.56;;;18.68
45393;BMP280;31129;44.810;10.334;2023-04-01T18:59:17;99590.50;;;18.61
45393;BMP280;31129;44.810;10.334;2023-04-01T19:01:51;99595.47;;;18.63
45393;BMP280;31129;44.810;10.334;2023-04-01T19:07:21;99599.31;;;18.60
45393;BMP280;31129;44.810;10.334;2023-04-01T19:09:47;99597.84;;;18.51
45393;BMP280;31129;44.810;10.334;2023-04-01T19:12:31;99603.38;;;18.51
45393;BMP280;31129;44.810;10.334;2023-04-01T19:15:10;99596.75;;;18.39
45393;BMP280;31129;44.810;10.334;2023-04-01T19:22:54;99598.19;;;18.32
45393;BMP280;31129;44.810;10.334;2023-04-01T19:30:57;99600.19;;;18.24
45393;BMP280;31129;44.810;10.334;2023-04-01T19:36:11;99601.09;;;18.11
45393;BMP280;31129;44.810;10.334;2023-04-01T19:38:40;99598.13;;;18.09
45393;BMP280;31129;44.810;10.334;2023-04-01T19:43:55;99601.06;;;18.04
45393;BMP280;31129;44.810;10.334;2023-04-01T19:46:36;99602.31;;;18.03
45393;BMP280;31129;44.810;10.334;2023-04-01T19:54:24;99585.50;;;17.78
45393;BMP280;31129;44.810;10.334;2023-04-01T19:59:22;99591.72;;;17.71
45393;BMP280;31129;44.810;10.334;2023-04-01T20:01:59;99596.16;;;17.74
45393;BMP280;31129;44.810;10.334;2023-04-01T20:04:37;99583.78;;;17.67
45393;BMP280;31129;44.810;10.334;2023-04-01T20:09:50;99598.63;;;17.57
45393;BMP280;31129;44.810;10.334;2023-04-01T20:15:22;99595.28;;;17.51
45393;BMP280;31129;44.810;10.334;2023-04-01T20:17:51;99598.75;;;17.44
45393;BMP280;31129;44.810;10.334;2023-04-01T20:20:19;99600.97;;;17.45
45393;BMP280;31129;44.810;10.334;2023-04-01T20:28:02;99606.78;;;17.34
45393;BMP280;31129;44.810;10.334;2023-04-01T20:40:42;99622.28;;;17.45
45393;BMP280;31129;44.810;10.334;2023-04-01T20:48:57;99624.63;;;17.41
45393;BMP280;31129;44.810;10.334;2023-04-01T20:51:26;99620.75;;;17.36
45393;BMP280;31129;44.810;10.334;2023-04-01T20:59:10;99620.75;;;17.36
45393;BMP280;31129;44.810;10.334;2023-04-01T21:04:24;99625.19;;;17.39
45393;BMP280;31129;44.810;10.334;2023-04-01T21:09:34;99632.69;;;17.31
45393;BMP280;31129;44.810;10.334;2023-04-01T21:12:24;99626.75;;;17.27
45393;BMP280;31129;44.810;10.334;2023-04-01T21:22:43;99616.81;;;17.24
45393;BMP280;31129;44.810;10.334;2023-04-01T21:30:39;99630.19;;;17.20
45393;BMP280;31129;44.810;10.334;2023-04-01T21:35:43;99632.50;;;17.08
45393;BMP280;31129;44.810;10.334;2023-04-01T21:41:02;99633.28;;;16.95
45393;BMP280;31129;44.810;10.334;2023-04-01T21:44:09;99640.63;;;16.93
45393;BMP280;31129;44.810;10.334;2023-04-01T21:59:27;99632.75;;;16.76
45393;BMP280;31129;44.810;10.334;2023-04-01T22:04:47;99633.88;;;16.60
45393;BMP280;31129;44.810;10.334;2023-04-01T22:07:15;99645.53;;;16.66
45393;BMP280;31129;44.810;10.334;2023-04-01T22:15:10;99639.78;;;16.64
45393;BMP280;31129;44.810;10.334;2023-04-01T22:17:59;99644.72;;;16.58
45393;BMP280;31129;44.810;10.334;2023-04-01T22:28:29;99642.50;;;16.43
45393;BMP280;31129;44.810;10.334;2023-04-01T22:30:59;99644.94;;;16.47
45393;BMP280;31129;44.810;10.334;2023-04-01T22:33:36;99650.91;;;16.38
45393;BMP280;31129;44.810;10.334;2023-04-01T22:43:54;99641.81;;;16.30
45393;BMP280;31129;44.810;10.334;2023-04-01T22:46:40;99651.22;;;16.34
45393;BMP280;31129;44.810;10.334;2023-04-01T22:49:14;99647.84;;;16.28
45393;BMP280;31129;44.810;10.334;2023-04-01T22:57:06;99647.44;;;16.24
45393;BMP280;31129;44.810;10.334;2023-04-01T23:02:14;99641.19;;;16.24
45393;BMP280;31129;44.810;10.334;2023-04-01T23:04:42;99657.38;;;16.27
45393;BMP280;31129;44.810;10.334;2023-04-01T23:09:51;99637.69;;;16.23
45393;BMP280;31129;44.810;10.334;2023-04-01T23:12:18;99645.88;;;16.15
45393;BMP280;31129;44.810;10.334;2023-04-01T23:14:46;99645.97;;;16.23
45393;BMP280;31129;44.810;10.334;2023-04-01T23:17:17;99654.53;;;16.20
45393;BMP280;31129;44.810;10.334;2023-04-01T23:19:49;99668.72;;;16.24
45393;BMP280;31129;44.810;10.334;2023-04-01T23:24:56;99696.00;;;16.35
45393;BMP280;31129;44.810;10.334;2023-04-01T23:27:28;99700.91;;;16.15
45393;BMP280;31129;44.810;10.334;2023-04-01T23:29:55;99701.56;;;16.08
45393;BMP280;31129;44.810;10.334;2023-04-01T23:32:22;99700.69;;;16.00
45393;BMP280;31129;44.810;10.334;2023-04-01T23:34:51;99706.63;;;15.91
45393;BMP280;31129;44.810;10.334;2023-04-01T23:37:17;99714.22;;;15.85
45393;BMP280;31129;44.810;10.334;2023-04-01T23:39:45;99714.50;;;15.68
45393;BMP280;31129;44.810;10.334;2023-04-01T23:44:42;99709.13;;;15.63
45393;BMP280;31129;44.810;10.334;2023-04-01T23:47:11;99716.19;;;15.58
45393;BMP280;31129;44.810;10.334;2023-04-01T23:49:39;99713.22;;;15.56
45393;BMP280;31129;44.810;10.334;2023-04-01T23:52:13;99706.22;;;15.42
45393;BMP280;31129;44.810;10.334;2023-04-01T23:57:09;99697.38;;;15.49
45393;BMP280;31129;44.810;10.334;2023-04-01T23:59:35;99692.50;;;15.55
